This is the latest recevied weather packets stored in our database for station/object OM4MO-10. If no packets are shown the sender has not sent any weather packets the latest 10 day(s).
| Time | Temp. | Humidity | Pressure | Rain* | Wind** | Luminosity | Snow |
|---|---|---|---|---|---|---|---|
| 1788065139 | 12.22° C | 78% | 1016.8 hPa | - | - | - | - |
| 1788064237 | 12.22° C | 78% | 1019.5 hPa | - | - | - | - |
| 1788063337 | 11.67° C | 78% | 1018.9 hPa | - | - | - | - |
| 1788062435 | 11.67° C | 78% | 1018.9 hPa | - | - | - | - |
| 1788061535 | 21.67° C | 79% | 754.7 hPa | - | - | - | - |
| 1788060634 | 21.67° C | 79% | 754.7 hPa | - | - | - | - |
| 1788059733 | 21.67° C | 79% | 754.7 hPa | - | - | - | - |
| 1788058832 | 11.67° C | 78% | 1018.8 hPa | - | - | - | - |
| 1788057931 | 12.22° C | 78% | 1018.6 hPa | - | - | - | - |
| 1788057029 | 12.22° C | 78% | 1018.7 hPa | - | - | - | - |
| 1788056128 | 21.67° C | 79% | 754.7 hPa | - | - | - | - |
| 1788055228 | 12.22° C | 78% | 1018.5 hPa | - | - | - | - |
| 1788054327 | 21.67° C | 79% | 754.7 hPa | - | - | - | - |
| 1788053426 | 21.67° C | 79% | 754.7 hPa | - | - | - | - |
| 1788052525 | 21.67° C | 79% | 754.7 hPa | - | - | - | - |
| 1788051624 | 21.67° C | 79% | 754.7 hPa | - | - | - | - |
| 1788050723 | 12.78° C | 79% | 1018.5 hPa | - | - | - | - |
| 1788049823 | 21.67° C | 79% | 754.7 hPa | - | - | - | - |
| 1788048922 | 12.78° C | 79% | 1017.5 hPa | - | - | - | - |
| 1788048021 | 21.67° C | 79% | 754.7 hPa | - | - | - | - |
| 1788047120 | 12.78° C | 79% | 1017.3 hPa | - | - | - | - |
| 1788046220 | 21.67° C | 79% | 754.7 hPa | - | - | - | - |
| 1788045319 | 21.67° C | 79% | 754.7 hPa | - | - | - | - |
| 1788044419 | 21.67° C | 79% | 754.7 hPa | - | - | - | - |
| 1788043517 | 21.67° C | 79% | 754.7 hPa | - | - | - | - |
* Rain since midnight (hover to see other rain measurements)
** Current wind speed in m/s (hover to see current wind gust speed)